Caledonia, Missouri
Current Conditions -  °F | °C
As of 11:55 PM on Saturday 22 Nov 2014 (Local Time) from KFAM Reporting Station
Clear Clear  
Wind Chill: 10°   Ceiling: Unl
Heat Index: 10°   Visibility: 10mi
Dew Point:   Wind: 7mph
Humidity: 82%   Direction: 130°SE
Pressure: 29.91"   Gusts: NA
Location:  37.76°N, 90.77°W
Report Text: KFAM 230555Z AUTO 13006KT 10SM CLR 10/07 A2991 RMK AO1 60001 10110 20100 57014
Loading
Personal Weather Stations






























Interactive Weather Map New forecast layout! Learn more

10-Day Weather Forecast

Advertisements
Track Severe Weather on mobile